ADDS METAR Data INFO
IDs: Format: Raw Decoded Include TAF

Data at: 2305 UTC 16 Jan 2018

KHUT 162252Z 34008KT 10SM CLR M09/M14 A3068 RMK AO2 SLP417 T10941144
KHUT 162152Z 34009KT 10SM CLR M09/M14 A3070 RMK AO2 SLP421 T10891144
KHUT 162052Z 30009KT 10SM CLR M09/M14 A3071 RMK AO2 SLP424 T10941144 56024
KHUT 161952Z 29013KT 10SM CLR M10/M14 A3071 RMK AO2 SLP427 T11001144
KHUT 161852Z 32009KT 10SM CLR M11/M16 A3074 RMK AO2 SLP435 T11111156
KHUT 161752Z 33009KT 10SM CLR M13/M17 A3078 RMK AO2 SLP451 T11281172 11128 21183 50003
KHUT 161652Z 35009KT 10SM CLR M14/M19 A3080 RMK AO2 SLP458 T11391189
KHUT 161552Z 34012KT 10SM CLR M15/M20 A3078 RMK AO2 SLP453 T11501200
KHUT 161452Z 33010KT 10SM CLR M17/M21 A3077 RMK AO2 SLP450 T11671206 51010
KHUT 161352Z 32010KT 10SM CLR M18/M22 A3077 RMK AO2 SLP450 T11781217
KHUT 161252Z 32007KT 10SM CLR M18/M21 A3075 RMK AO2 SLP444 T11781211
KHUT 161152Z AUTO 32008KT 10SM CLR M18/M22 A3074 RMK AO2 SLP438 T11831217 11150 21183 55000
KHUT 161052Z AUTO 31010KT 10SM CLR M18/M21 A3073 RMK AO2 SLP435 T11781211
KHUT 160952Z AUTO 32009KT 10SM CLR M17/M21 A3074 RMK AO2 SLP437 T11671206
KHUT 160852Z AUTO 32008KT 10SM CLR M16/M21 A3074 RMK AO2 SLP435 T11611206 55000
KHUT 160752Z AUTO 34010KT 10SM CLR M16/M20 A3073 RMK AO2 SLP431 T11611200
KHUT 160652Z AUTO 33007KT 10SM CLR M16/M20 A3073 RMK AO2 SLP432 T11611200
KHUT 160552Z AUTO 34010G20KT 10SM CLR M15/M19 A3074 RMK AO2 SLP436 T11501194 11111 21150 400561150 53010
KHUT 160452Z 33008KT 10SM CLR M14/M19 A3073 RMK AO2 SLP431 T11441194
KHUT 160352Z 35013G22KT 10SM CLR M14/M19 A3072 RMK AO2 SLP425 T11391189
KHUT 160252Z 34012KT 10SM CLR M14/M19 A3071 RMK AO2 SLP422 T11391189 51025
KHUT 160152Z 35011KT 10SM CLR M14/M18 A3069 RMK AO2 SLP414 T11391183
KHUT 160052Z 34013KT 10SM CLR M12/M18 A3066 RMK AO2 SLP402 T11221178
KHUT 152352Z 35011G17KT 10SM CLR M11/M17 A3063 RMK AO2 SLP389 T11111172 11094 21111 53019
KHUT 152252Z 34013G21KT 10SM CLR M10/M16 A3061 RMK AO2 SLP380 T11001161
KHUT 152152Z 33019G23KT 10SM FEW032 M10/M15 A3059 RMK AO2 PK WND 35026/2128 SLP372 T11001150
KHUT 152120Z 34015G22KT 10SM BKN030 M09/M14 A3058 RMK AO2 T10941144
KHUT 152100Z 36011G20KT 10SM BKN029 M09/M14 A3058 RMK AO2 T10941144
KHUT 152052Z 35017G21KT 10SM SCT029 M09/M15 A3058 RMK AO2 SLP367 T10941150 56007
KHUT 151952Z 33013KT 10SM BKN026 M10/M14 A3058 RMK AO2 SLP366 T11001144
KHUT 151945Z 35015KT 9SM FEW018 BKN026 M11/M14 A3058 RMK AO2 T11061144
KHUT 151852Z 35014G22KT 10SM CLR M10/M15 A3058 RMK AO2 SLP366 T11001150
KHUT 151831Z 36012G20KT 10SM FEW021 SCT110 M11/M15 A3060 RMK AO2 T11061150
KHUT 151752Z 35021G28KT 9SM BKN018 OVC100 M10/M15 A3060 RMK AO2 PK WND 34028/1752 SNE50 SLP373 P0000 60000 T11001150 11017 21100 51034
KHUT 151737Z 01017G23KT 3SM -SN BKN017 OVC023 M10/M13 A3059 RMK AO2 P0000 T11001133
KHUT 151719Z 36014G19KT 2SM -SN SCT017 OVC022 M09/M12 A3060 RMK AO2 P0000 T10941122
KHUT 151652Z 36014G22KT 5SM -SN OVC021 M09/M13 A3059 RMK AO2 SNB01 SLP368 P0000 T10941128
KHUT 151630Z 02014KT 2SM -SN OVC021 M09/M12 A3057 RMK AO2 SNB01 P0000 T10941122
KHUT 151552Z 02012G19KT 10SM BKN018 OVC090 M08/M12 A3054 RMK AO2 SLP353 T10831117
KHUT 151452Z 01014G24KT 10SM OVC080 M08/M11 A3049 RMK AO2 PK WND 36026/1414 PRESRR SLP336 60000 T10781111 51027
KHUT 151352Z 01015G24KT 10SM SCT017 OVC055 M06/M09 A3045 RMK AO2 SNE1254B16E34 SLP321 P0000 T10611094
KHUT 151349Z 01018G24KT 10SM BKN017 OVC049 M06/M09 A3045 RMK AO2 SNE1254B16E34 P0000
KHUT 151304Z 01015G24KT 10SM SCT017 OVC041 M04/M06 A3042 RMK AO2 SNE1254 P0000 T10391061
KHUT 151252Z 36017G26KT 8SM -SN BKN015 OVC033 M03/M06 A3041 RMK AO2 PK WND 36026/1247 SNE04B22 SLP305 P0000 T10331056
KHUT 151202Z AUTO 36017G23KT 6SM -SN BR SCT008 BKN049 OVC075 M02/M04 A3037 RMK AO2 PRESRR P0000 T10221044
KHUT 151156Z AUTO 36016G27KT 2SM -SN BR SCT009 BKN012 OVC048 M02/M04 A3036 RMK AO2 P0000 T10221039
KHUT 151152Z AUTO 02020G27KT 1 1/2SM -SN BR BKN009 BKN012 OVC050 M01/M02 A3036 RMK AO2 PK WND 01027/1152 SLP285 P0000 60005 70005 T10111022 10056 21011 53027
KHUT 151147Z AUTO 36015G23KT 1 3/4SM -SN BR SCT009 BKN013 OVC055 M01/M02 A3035 RMK AO2 P0000
KHUT 151114Z AUTO 01011G20KT 3SM -SN BR FEW009 OVC036 M01/M02 A3033 RMK AO2 P0000 T10061017
KHUT 151107Z AUTO 01012G20KT 2 1/2SM -SN BR FEW009 OVC032 M01/M02 A3033 RMK AO2 P0000 T10111017